createdAt,value
2022-11-20T00:03:05.461Z,1.83
2022-11-20T00:08:08.129Z,1.88
2022-11-20T00:13:11.357Z,1.03
2022-11-20T00:18:15.439Z,1.83
2022-11-20T00:23:18.098Z,1.80
2022-11-20T00:28:20.665Z,1.44
2022-11-20T00:33:24.577Z,1.82
2022-11-20T00:38:27.116Z,1.75
2022-11-20T00:43:29.935Z,1.85
2022-11-20T00:48:34.123Z,1.92
2022-11-20T00:53:36.787Z,1.79
2022-11-20T00:58:42.747Z,1.73
2022-11-20T01:03:48.534Z,1.64
2022-11-20T01:08:52.686Z,1.67
2022-11-20T01:13:56.812Z,1.42
2022-11-20T01:19:09.601Z,1.41
2022-11-20T01:24:16.489Z,1.43
2022-11-20T01:29:21.647Z,1.44
2022-11-20T01:34:25.889Z,1.49
2022-11-20T01:39:28.932Z,1.36
2022-11-20T01:45:01.153Z,1.56
2022-11-20T01:50:13.096Z,1.37
2022-11-20T01:55:21.342Z,1.51
2022-11-20T02:06:03.234Z,1.44
2022-11-20T02:11:06.260Z,1.15
2022-11-20T02:16:12.149Z,1.25
2022-11-20T02:21:26.211Z,0.94
2022-11-20T02:26:32.091Z,1.07
2022-11-20T02:31:40.401Z,1.09
2022-11-20T02:36:44.507Z,1.34
2022-11-20T02:41:48.644Z,1.40
2022-11-20T02:46:51.336Z,1.40
2022-11-20T02:51:54.032Z,1.35
2022-11-20T02:56:57.952Z,1.50
2022-11-20T03:02:00.509Z,1.63
2022-11-20T03:07:04.725Z,1.46
2022-11-20T03:12:09.147Z,1.55
2022-11-20T03:17:12.262Z,1.78
2022-11-20T03:22:15.134Z,1.73
2022-11-20T03:27:19.210Z,1.61
2022-11-20T03:32:22.004Z,1.57
2022-11-20T03:37:24.598Z,1.32
2022-11-20T03:42:46.885Z,1.35
2022-11-20T03:47:49.634Z,1.36
2022-11-20T03:52:52.210Z,1.41
2022-11-20T03:57:56.096Z,1.33
2022-11-20T04:02:59.875Z,1.40
2022-11-20T04:08:03.005Z,1.47
2022-11-20T04:13:06.905Z,1.47
2022-11-20T04:18:09.496Z,1.61
2022-11-20T04:23:12.018Z,1.69
2022-11-20T04:28:15.888Z,1.65
2022-11-20T04:33:19.095Z,1.87
2022-11-20T04:38:21.804Z,1.77
2022-11-20T04:43:25.827Z,1.66
2022-11-20T04:48:29.726Z,1.70
2022-11-20T04:53:32.816Z,1.88
2022-11-20T04:58:36.878Z,2.01
2022-11-20T05:03:42.341Z,1.85
2022-11-20T05:08:45.570Z,1.97
2022-11-20T05:13:50.461Z,1.44
2022-11-20T05:18:55.107Z,1.25
2022-11-20T05:23:57.737Z,1.68
2022-11-20T05:29:01.875Z,1.75
2022-11-20T05:34:04.456Z,1.89
2022-11-20T05:39:07.170Z,1.88
2022-11-20T05:44:13.564Z,1.99
2022-11-20T05:49:16.691Z,2.05
2022-11-20T05:54:19.451Z,2.01
2022-11-20T05:59:23.650Z,1.92
2022-11-20T06:04:26.383Z,2.03
2022-11-20T06:09:28.969Z,2.07
2022-11-20T06:14:33.339Z,1.76
2022-11-20T06:19:35.900Z,2.03
2022-11-20T06:24:38.536Z,1.75
2022-11-20T06:29:42.808Z,1.91
2022-11-20T06:34:45.998Z,1.86
2022-11-20T06:39:48.635Z,1.87
2022-11-20T06:44:52.758Z,1.87
2022-11-20T06:49:55.318Z,1.88
2022-11-20T06:54:58.072Z,1.93
2022-11-20T07:00:02.136Z,2.00
2022-11-20T07:05:05.193Z,2.01
2022-11-20T07:10:08.530Z,2.03
2022-11-20T07:15:12.474Z,1.98
2022-11-20T07:20:15.623Z,2.04
2022-11-20T07:25:18.674Z,2.03
2022-11-20T07:30:22.605Z,1.76
2022-11-20T07:35:25.713Z,2.04
2022-11-20T07:40:28.499Z,1.87
2022-11-20T07:45:32.508Z,1.89
2022-11-20T07:50:35.501Z,2.03
2022-11-20T07:55:38.351Z,2.05
2022-11-20T08:00:42.366Z,1.82
2022-11-20T08:05:45.362Z,2.01
2022-11-20T08:10:47.941Z,1.98
2022-11-20T08:15:53.189Z,2.12
2022-11-20T08:20:55.765Z,2.05
2022-11-20T08:25:58.905Z,2.07
2022-11-20T08:31:04.647Z,2.24
2022-11-20T08:36:08.199Z,2.47
2022-11-20T08:41:26.540Z,2.42
2022-11-20T08:46:34.951Z,2.56
2022-11-20T08:51:38.464Z,2.52
2022-11-20T08:56:41.068Z,2.64
2022-11-20T09:01:45.042Z,2.77
2022-11-20T09:06:51.708Z,2.87
2022-11-20T09:11:54.308Z,2.95
2022-11-20T09:16:58.471Z,2.85
2022-11-20T09:22:01.889Z,3.06
2022-11-20T09:27:06.060Z,2.97
2022-11-20T09:32:10.080Z,3.12
2022-11-20T09:37:12.639Z,3.17
2022-11-20T09:42:29.602Z,3.25
2022-11-20T09:47:47.433Z,3.15
2022-11-20T09:53:02.985Z,3.28
2022-11-20T09:58:08.303Z,3.49
2022-11-20T10:03:20.252Z,3.70
2022-11-20T10:08:26.927Z,3.95
2022-11-20T10:13:40.432Z,4.14
2022-11-20T10:18:58.573Z,4.31
2022-11-20T10:24:25.072Z,4.46
2022-11-20T10:29:35.113Z,4.71
2022-11-20T10:34:48.936Z,4.77
2022-11-20T10:39:57.033Z,4.92
2022-11-20T10:45:11.699Z,5.02
2022-11-20T10:50:22.477Z,5.13
2022-11-20T10:55:34.803Z,5.11
2022-11-20T11:00:37.463Z,5.23
2022-11-20T11:05:49.036Z,5.33
2022-11-20T11:10:55.626Z,5.44
2022-11-20T11:15:59.559Z,5.44
2022-11-20T11:21:06.908Z,5.26
2022-11-20T11:26:22.167Z,5.43
2022-11-20T11:31:26.057Z,5.47
2022-11-20T11:36:29.995Z,5.48
2022-11-20T11:41:36.585Z,5.51
2022-11-20T11:46:40.463Z,5.48
2022-11-20T11:51:59.149Z,5.03
2022-11-20T11:57:07.001Z,5.59
2022-11-20T12:02:22.864Z,5.50
2022-11-20T12:07:46.718Z,5.67
2022-11-20T12:13:16.839Z,5.66
2022-11-20T12:18:21.812Z,5.71
2022-11-20T12:23:32.108Z,5.62
2022-11-20T12:28:46.205Z,5.85
2022-11-20T12:34:12.494Z,5.93
2022-11-20T12:39:31.129Z,6.01
2022-11-20T12:45:12.710Z,6.11
2022-11-20T12:50:24.778Z,6.03
2022-11-20T12:55:45.661Z,6.06
2022-11-20T13:00:58.016Z,6.11
2022-11-20T13:06:07.847Z,5.34
2022-11-20T13:11:19.019Z,6.13
2022-11-20T13:16:27.292Z,6.07
2022-11-20T13:21:39.122Z,6.10
2022-11-20T13:26:43.082Z,6.11
2022-11-20T13:31:48.035Z,6.03
2022-11-20T13:36:53.047Z,5.90
2022-11-20T13:41:58.519Z,5.99
2022-11-20T13:47:01.100Z,5.97
2022-11-20T13:52:24.415Z,5.90
2022-11-20T13:57:43.961Z,5.94
2022-11-20T14:03:01.395Z,5.96
2022-11-20T14:08:05.846Z,5.96
2022-11-20T14:13:21.121Z,5.26
2022-11-20T14:18:23.923Z,5.88
2022-11-20T14:23:30.172Z,5.95
2022-11-20T14:28:34.457Z,5.98
2022-11-20T14:33:38.910Z,5.99
2022-11-20T14:38:43.445Z,6.00
2022-11-20T14:43:50.520Z,5.73
2022-11-20T14:48:56.200Z,5.87
2022-11-20T14:54:10.541Z,5.89
2022-11-20T14:59:24.909Z,5.86
2022-11-20T15:04:27.798Z,5.91
2022-11-20T15:09:30.379Z,5.90
2022-11-20T15:14:34.794Z,5.85
2022-11-20T15:19:37.543Z,5.88
2022-11-20T15:24:40.129Z,5.88
2022-11-20T15:29:44.485Z,5.86
2022-11-20T15:34:46.999Z,5.82
2022-11-20T15:39:49.946Z,5.84
2022-11-20T15:44:53.901Z,5.88
2022-11-20T15:49:56.539Z,5.91
2022-11-20T15:54:59.271Z,5.89
2022-11-20T16:00:03.153Z,5.89
2022-11-20T16:05:14.091Z,5.85
2022-11-20T16:10:17.319Z,5.99
2022-11-20T16:15:38.827Z,5.74
2022-11-20T16:20:41.409Z,5.99
2022-11-20T16:25:44.209Z,6.01
2022-11-20T16:30:48.335Z,5.97
2022-11-20T16:35:50.895Z,5.95
2022-11-20T16:40:53.422Z,5.94
2022-11-20T16:45:57.707Z,5.99
2022-11-20T16:51:00.254Z,5.98
2022-11-20T16:56:10.686Z,5.99
2022-11-20T17:01:16.486Z,5.99
2022-11-20T17:06:21.362Z,6.07
2022-11-20T17:11:24.639Z,6.07
2022-11-20T17:16:29.262Z,6.12
2022-11-20T17:21:32.598Z,6.16
2022-11-20T17:26:36.995Z,6.23
2022-11-20T17:31:41.160Z,5.53
2022-11-20T17:36:45.667Z,6.29
2022-11-20T17:42:09.369Z,6.37
2022-11-20T17:47:13.438Z,6.46
2022-11-20T17:52:16.298Z,6.59
2022-11-20T17:57:36.646Z,6.59
2022-11-20T18:02:40.738Z,6.64
2022-11-20T18:07:43.498Z,6.65
2022-11-20T18:12:46.455Z,6.65
2022-11-20T18:17:50.435Z,6.66
2022-11-20T18:22:53.364Z,6.84
2022-11-20T18:27:56.338Z,6.78
2022-11-20T18:33:00.409Z,6.90
2022-11-20T18:38:03.122Z,6.99
2022-11-20T18:43:23.938Z,6.95
2022-11-20T18:48:28.056Z,7.13
2022-11-20T18:53:30.855Z,7.10
2022-11-20T18:58:34.286Z,7.19
2022-11-20T19:03:38.329Z,7.25
2022-11-20T19:08:41.955Z,7.02
2022-11-20T19:13:44.577Z,7.30
2022-11-20T19:18:49.972Z,7.33
2022-11-20T19:23:54.481Z,7.43
2022-11-20T19:28:58.625Z,7.38
2022-11-20T19:34:04.319Z,7.58
2022-11-20T19:39:08.898Z,7.83
2022-11-20T19:44:13.893Z,7.67
2022-11-20T19:49:17.904Z,8.13
2022-11-20T19:54:20.626Z,8.18
2022-11-20T19:59:23.381Z,7.67
2022-11-20T20:04:28.193Z,8.36
2022-11-20T20:09:30.855Z,8.42
2022-11-20T20:14:34.708Z,8.34
2022-11-20T20:19:38.647Z,8.27
2022-11-20T20:24:41.209Z,8.33
2022-11-20T20:29:43.779Z,8.16
2022-11-20T20:34:47.718Z,8.06
2022-11-20T20:39:50.805Z,7.97
2022-11-20T20:45:10.810Z,7.86
2022-11-20T20:50:14.848Z,7.71
2022-11-20T20:55:17.562Z,7.85
2022-11-20T21:00:20.920Z,7.78
2022-11-20T21:05:26.068Z,7.82
2022-11-20T21:10:30.398Z,7.71
2022-11-20T21:15:36.618Z,7.60
2022-11-20T21:20:58.997Z,7.58
2022-11-20T21:26:03.158Z,7.28
2022-11-20T21:31:07.343Z,7.34
2022-11-20T21:36:13.014Z,7.19
2022-11-20T21:41:16.769Z,7.01
2022-11-20T21:46:19.631Z,6.94
2022-11-20T21:51:25.158Z,7.00
2022-11-20T21:56:29.298Z,6.88
2022-11-20T22:01:32.405Z,6.79
2022-11-20T22:06:36.352Z,6.70
2022-11-20T22:11:38.878Z,6.60
2022-11-20T22:16:41.445Z,6.65
2022-11-20T22:21:47.001Z,6.53
2022-11-20T22:26:50.040Z,6.63
2022-11-20T22:31:53.143Z,6.73
2022-11-20T22:36:57.059Z,6.61
2022-11-20T22:41:59.630Z,6.51
2022-11-20T22:47:02.174Z,6.53
2022-11-20T22:52:06.177Z,6.30
2022-11-20T22:57:08.779Z,6.09
2022-11-20T23:02:11.358Z,5.81
2022-11-20T23:07:15.800Z,6.00
2022-11-20T23:12:18.353Z,5.80
2022-11-20T23:17:20.916Z,5.63
2022-11-20T23:22:24.797Z,5.73
2022-11-20T23:27:28.499Z,5.64
2022-11-20T23:32:31.089Z,5.63
2022-11-20T23:37:35.032Z,5.61
2022-11-20T23:42:37.579Z,5.59
2022-11-20T23:47:40.529Z,5.57
2022-11-20T23:52:44.420Z,5.51
2022-11-20T23:57:46.981Z,5.54
